Ortonville, MN

2:16 PM CST on December 08, 2016 (GMT -0600)
Ortonville Municipal-Martinson

Weather History for KVVV - September, 2013

Change the Weather History Date:

Tuesday, September 3, 2013

  Actual Average (KAQP) Record (KAQP)
Temperature  
Mean Temperature 64 °F -  
Max Temperature 80 °F 77 °F 91 °F (2007)
Min Temperature 48 °F 53 °F 37 °F (2008)
Degree Days  
Heating Degree Days 1    
Growing Degree Days 14 (Base 50)    
Moisture  
Dew Point 55 °F    
Average Humidity 75    
Maximum Humidity 93    
Minimum Humidity 47    
Precipitation  
Precipitation 0.00 in - - ()
Sea Level Pressure  
Sea Level Pressure 30.02 in    
Wind  
Wind Speed 4 mph (SE)    
Max Wind Speed 9 mph    
Max Gust Speed -    
Visibility 10 miles    
Events      
Averages and records for this station are not official NWS values.
T = Trace of Precipitation, MM = Missing Value Source: NWS Daily Summary

Daily Weather History Graph

Daily Weather History Graph

Search for Another Location

Airport or City:

Trip Planner

Search our weather history database for the weather conditions in past years. The results will help you decide how hot, cold, wet, or windy it might be!

Date:

Astronomy

Sep. 03, 2013 Rise Set
Actual Time 6:50 AM CDT 7:58 PM CDT
Civil Twilight 6:19 AM CDT 8:29 PM CDT
Nautical Twilight 5:43 AM CDT 9:05 PM CDT
Astronomical Twilight 5:04 AM CDT 9:43 PM CDT
Moon 5:02 AM CDT (9/3) 6:47 PM CDT (9/3)
Length of Visible Light 14h 09m
Length of Day
13h 08m
Waning Crescent, 3% of the Moon is Illuminated
Sep 3
Waning Crescent
Sep 5
New
Sep 12
First Quarter
Sep 19
Full
Sep 26
Last Quarter

Hourly Weather History & Observations

Time (CDT) Temp. Heat Index Dew Point Humidity Pressure Visibility Wind Dir Wind Speed Gust Speed Precip Events Conditions
12:13 AM 53.6 °F - 48.2 °F 82% 30.04 in 10.0 mi SSE 3.5 mph - N/A   Clear
12:34 AM 53.6 °F - 48.2 °F 82% 30.04 in 10.0 mi Calm Calm - N/A   Clear
12:53 AM 53.6 °F - 48.2 °F 82% 30.04 in 10.0 mi Calm Calm - N/A   Clear
1:13 AM 51.8 °F - 48.2 °F 88% 30.04 in 10.0 mi Calm Calm - N/A   Clear
1:34 AM 51.8 °F - 48.2 °F 88% 30.04 in 10.0 mi Calm Calm - N/A   Clear
1:53 AM 51.8 °F - 48.2 °F 88% 30.04 in 10.0 mi ESE 4.6 mph - N/A   Clear
2:14 AM 51.8 °F - 48.2 °F 88% 30.04 in 10.0 mi SE 3.5 mph - N/A   Clear
2:34 AM 51.8 °F - 48.2 °F 88% 30.04 in 10.0 mi Calm Calm - N/A   Clear
2:53 AM 51.8 °F - 46.4 °F 82% 30.04 in 10.0 mi SSE 3.5 mph - N/A   Clear
3:14 AM 51.8 °F - 46.4 °F 82% 30.03 in 10.0 mi Calm Calm - N/A   Clear
3:34 AM 50.0 °F - 46.4 °F 87% 30.03 in 10.0 mi Calm Calm - N/A   Clear
3:53 AM 50.0 °F - 46.4 °F 87% 30.04 in 10.0 mi Calm Calm - N/A   Clear
4:14 AM 48.2 °F - 46.4 °F 93% 30.04 in 10.0 mi South 3.5 mph - N/A   Clear
4:34 AM 48.2 °F - 46.4 °F 93% 30.04 in 10.0 mi SE 4.6 mph - N/A   Clear
4:53 AM 48.2 °F - 46.4 °F 93% 30.04 in 10.0 mi SSE 4.6 mph - N/A   Clear
5:14 AM 48.2 °F - 46.4 °F 93% 30.04 in 10.0 mi SSE 4.6 mph - N/A   Clear
5:34 AM 48.2 °F - 46.4 °F 93% 30.04 in 10.0 mi SE 6.9 mph - N/A   Clear
5:53 AM 48.2 °F - 46.4 °F 93% 30.04 in 10.0 mi SE 5.8 mph - N/A   Clear
6:14 AM 48.2 °F - 46.4 °F 93% 30.04 in 10.0 mi SE 5.8 mph - N/A   Clear
6:34 AM 48.2 °F - 46.4 °F 93% 30.04 in 10.0 mi SE 5.8 mph - N/A   Clear
6:54 AM 48.2 °F - 46.4 °F 93% 30.05 in 10.0 mi SE 5.8 mph - N/A   Clear
7:13 AM 48.2 °F - 46.4 °F 93% 30.04 in 10.0 mi SE 6.9 mph - N/A   Clear
7:34 AM 50.0 °F - 46.4 °F 87% 30.04 in 10.0 mi SE 6.9 mph - N/A   Clear
7:54 AM 51.8 °F - 48.2 °F 88% 30.05 in 10.0 mi SSE 3.5 mph - N/A   Clear
8:13 AM 53.6 °F - 50.0 °F 88% 30.05 in 10.0 mi SE 4.6 mph - N/A   Clear
8:34 AM 57.2 °F - 51.8 °F 82% 30.04 in 10.0 mi SE 5.8 mph - N/A   Clear
8:53 AM 57.2 °F - 51.8 °F 82% 30.04 in 10.0 mi SE 6.9 mph - N/A   Clear
9:14 AM 57.2 °F - 51.8 °F 82% 30.03 in 10.0 mi SE 5.8 mph - N/A   Clear
9:34 AM 59.0 °F - 53.6 °F 82% 30.03 in 10.0 mi SE 6.9 mph - N/A   Clear
9:53 AM 62.6 °F - 53.6 °F 72% 30.03 in 10.0 mi SE 6.9 mph - N/A   Clear
10:14 AM 64.4 °F - 55.4 °F 73% 30.03 in 10.0 mi SE 4.6 mph - N/A   Clear
10:34 AM 66.2 °F - 55.4 °F 68% 30.04 in 10.0 mi SE 4.6 mph - N/A   Clear
10:53 AM 69.8 °F - 55.4 °F 60% 30.03 in 10.0 mi SSE 5.8 mph - N/A   Clear
11:14 AM 71.6 °F - 57.2 °F 60% 30.03 in 10.0 mi SSE 6.9 mph - N/A   Clear
11:33 AM 73.4 °F - 57.2 °F 57% 30.03 in 10.0 mi SE 6.9 mph - N/A   Clear
11:54 AM 75.2 °F - 57.2 °F 53% 30.03 in 10.0 mi SE 5.8 mph - N/A   Clear
12:14 PM 75.2 °F - 57.2 °F 53% 30.02 in 10.0 mi SSE 4.6 mph - N/A   Clear
12:33 PM 75.2 °F - 59.0 °F 57% 30.02 in 10.0 mi SE 6.9 mph - N/A   Clear
12:54 PM 75.2 °F - 59.0 °F 57% 30.02 in 10.0 mi SE 8.1 mph - N/A   Clear
1:14 PM 77.0 °F - 57.2 °F 50% 30.02 in 10.0 mi SE 6.9 mph - N/A   Clear
1:33 PM 77.0 °F - 57.2 °F 50% 30.01 in 10.0 mi SE 9.2 mph - N/A   Clear
1:53 PM 78.8 °F - 57.2 °F 47% 30.01 in 10.0 mi ESE 9.2 mph - N/A   Clear
2:14 PM 78.8 °F - 60.8 °F 54% 30.01 in 10.0 mi SSE 6.9 mph - N/A   Clear
2:34 PM 80.6 °F 81.5 °F 60.8 °F 51% 30.00 in 10.0 mi SE 8.1 mph - N/A   Clear
2:53 PM 78.8 °F - 60.8 °F 54% 30.00 in 10.0 mi SE 9.2 mph - N/A   Clear
3:14 PM 77.0 °F - 60.8 °F 57% 29.99 in 10.0 mi SE 8.1 mph - N/A   Clear
3:33 PM 77.0 °F - 62.6 °F 61% 29.99 in 10.0 mi SE 6.9 mph - N/A   Clear
3:54 PM 77.0 °F - 62.6 °F 61% 29.98 in 10.0 mi SE 6.9 mph - N/A   Clear
4:14 PM 77.0 °F - 62.6 °F 61% 29.98 in 10.0 mi SE 5.8 mph - N/A   Clear
4:33 PM 77.0 °F - 62.6 °F 61% 29.98 in 10.0 mi SE 6.9 mph - N/A   Clear
4:54 PM 78.8 °F - 62.6 °F 57% 29.98 in 10.0 mi SE 8.1 mph - N/A   Clear
5:14 PM 77.0 °F - 62.6 °F 61% 29.97 in 10.0 mi SE 8.1 mph - N/A   Clear
5:33 PM 78.8 °F - 62.6 °F 57% 29.97 in 10.0 mi SE 9.2 mph - N/A   Clear
5:54 PM 78.8 °F - 62.6 °F 57% 29.98 in 10.0 mi SE 8.1 mph - N/A   Clear
6:14 PM 78.8 °F - 62.6 °F 57% 29.98 in 10.0 mi SE 6.9 mph - N/A   Clear
6:33 PM 77.0 °F - 62.6 °F 61% 29.99 in 10.0 mi ESE 5.8 mph - N/A   Clear
6:54 PM 75.2 °F - 64.4 °F 69% 29.98 in 10.0 mi SE 5.8 mph - N/A   Clear
7:13 PM 75.2 °F - 64.4 °F 69% 29.98 in 10.0 mi ESE 6.9 mph - N/A   Clear
7:34 PM 73.4 °F - 62.6 °F 69% 29.99 in 10.0 mi ESE 5.8 mph - N/A   Clear
7:54 PM 71.6 °F - 62.6 °F 73% 29.98 in 10.0 mi ESE 5.8 mph - N/A   Clear
8:13 PM 71.6 °F - 62.6 °F 73% 29.98 in 10.0 mi ESE 5.8 mph - N/A   Clear
8:34 PM 69.8 °F - 62.6 °F 78% 29.99 in 10.0 mi East 5.8 mph - N/A   Clear
8:54 PM 68.0 °F - 62.6 °F 83% 29.99 in 10.0 mi East 6.9 mph - N/A   Clear
9:13 PM 69.8 °F - 62.6 °F 78% 29.99 in 10.0 mi ESE 6.9 mph - N/A   Clear
9:34 PM 69.8 °F - 60.8 °F 73% 29.99 in 10.0 mi ESE 6.9 mph - N/A   Clear
9:53 PM 68.0 °F - 60.8 °F 78% 29.99 in 10.0 mi SE 6.9 mph - N/A   Clear
10:14 PM 66.2 °F - 60.8 °F 83% 30.00 in 10.0 mi ESE 4.6 mph - N/A   Clear
10:33 PM 66.2 °F - 60.8 °F 83% 30.00 in 10.0 mi ESE 3.5 mph - N/A   Clear
10:54 PM 64.4 °F - 60.8 °F 88% 30.01 in 10.0 mi SE 4.6 mph - N/A   Clear
11:14 PM 64.4 °F - 60.8 °F 88% 30.01 in 10.0 mi SSE 3.5 mph - N/A   Clear
11:33 PM 64.4 °F - 60.8 °F 88% 30.01 in 10.0 mi SSE 3.5 mph - N/A   Clear
11:54 PM 64.4 °F - 60.8 °F 88% 30.01 in 10.0 mi Calm Calm - N/A   Clear